Time;durP1;ratioP1;P1;durP2;ratioP2;P2;SDS_P1;SDS_P2;PMS_P1;PMS_P2;Temp;Humidity;BMP_temperature;BMP_pressure;BME280_temperature;BME280_humidity;BME280_pressure;Samples;Min_cycle;Max_cycle;Signal;HPM_P1;HPM_P2
2022/11/23 00:01:09;;;;;;;165.65;155.20;;;;;;;;;;10252358;28;20043;-64
2022/11/23 00:06:05;;;;;;;159.30;149.27;;;;;;;;;;10257197;28;20047;-64
2022/11/23 00:11:01;;;;;;;166.95;156.27;;;;;;;;;;10255493;28;20220;-64
2022/11/23 00:15:58;;;;;;;162.35;152.07;;;;;;;;;;10252202;28;20055;-64
2022/11/23 00:20:54;;;;;;;158.60;148.10;;;;;;;;;;10247640;28;20045;-64
2022/11/23 00:25:50;;;;;;;149.55;139.85;;;;;;;;;;10236042;28;20053;-64
2022/11/23 00:30:49;;;;;;;152.43;142.48;;;;;;;;;;10258711;28;20076;-64
2022/11/23 00:35:46;;;;;;;148.50;138.82;;;;;;;;;;10245412;28;20052;-65
2022/11/23 00:40:42;;;;;;;148.80;139.05;;;;;;;;;;10244181;28;20045;-65
2022/11/23 00:45:38;;;;;;;150.10;140.40;;;;;;;;;;10242240;28;20087;-64
2022/11/23 00:50:34;;;;;;;145.60;135.68;;;;;;;;;;10247680;28;20044;-64
2022/11/23 00:55:30;;;;;;;138.32;129.55;;;;;;;;;;10240058;28;20128;-64
2022/11/23 01:00:27;;;;;;;136.90;127.78;;;;;;;;;;10266549;28;20052;-64
2022/11/23 01:05:23;;;;;;;135.00;126.28;;;;;;;;;;10244444;28;20048;-65
2022/11/23 01:10:19;;;;;;;136.93;127.05;;;;;;;;;;10242732;28;20048;-64
2022/11/23 01:15:15;;;;;;;133.82;124.95;;;;;;;;;;10236028;28;20059;-65
2022/11/23 01:20:12;;;;;;;132.68;124.10;;;;;;;;;;10250062;28;20049;-65
2022/11/23 01:25:08;;;;;;;133.73;125.40;;;;;;;;;;10246619;28;20483;-67
2022/11/23 01:30:04;;;;;;;126.57;118.45;;;;;;;;;;10244138;28;20067;-65
2022/11/23 01:35:01;;;;;;;122.80;114.85;;;;;;;;;;10244736;28;20052;-64
2022/11/23 01:39:57;;;;;;;126.03;118.10;;;;;;;;;;10240422;28;20495;-65
2022/11/23 01:45:13;;;;;;;124.30;116.10;;;;;;;;;;10247136;28;20068;-64
2022/11/23 01:50:09;;;;;;;123.00;115.15;;;;;;;;;;10248405;28;20499;-65
2022/11/23 01:55:06;;;;;;;120.70;112.82;;;;;;;;;;10258350;28;20045;-64
2022/11/23 02:00:04;;;;;;;115.68;107.95;;;;;;;;;;10255358;28;20046;-65
2022/11/23 02:05:00;;;;;;;118.07;110.18;;;;;;;;;;10249678;28;20045;-65
2022/11/23 02:09:56;;;;;;;121.85;113.88;;;;;;;;;;10250844;28;20116;-65
2022/11/23 02:14:53;;;;;;;119.45;111.57;;;;;;;;;;10253867;28;20053;-64
2022/11/23 02:20:01;;;;;;;123.28;115.43;;;;;;;;;;10255552;28;20052;-64
2022/11/23 02:24:59;;;;;;;118.60;111.13;;;;;;;;;;10249796;28;20406;-64
2022/11/23 02:29:56;;;;;;;120.20;112.53;;;;;;;;;;10249551;28;20051;-65
2022/11/23 02:34:52;;;;;;;121.43;113.65;;;;;;;;;;10243460;28;20545;-65
2022/11/23 02:39:50;;;;;;;124.40;116.55;;;;;;;;;;10252383;28;20686;-65
2022/11/23 02:45:04;;;;;;;129.50;120.85;;;;;;;;;;10254295;28;20082;-65
2022/11/23 02:50:00;;;;;;;129.05;120.80;;;;;;;;;;10251539;28;20037;-65
2022/11/23 02:54:56;;;;;;;121.60;114.25;;;;;;;;;;10254210;28;20040;-65
2022/11/23 02:59:53;;;;;;;123.60;115.63;;;;;;;;;;10249913;28;20059;-65
2022/11/23 03:04:49;;;;;;;121.07;113.15;;;;;;;;;;10248209;28;20038;-65
2022/11/23 03:09:45;;;;;;;121.15;113.55;;;;;;;;;;10252755;28;20049;-65
2022/11/23 03:14:41;;;;;;;120.43;112.45;;;;;;;;;;10249144;28;20045;-65
2022/11/23 03:19:38;;;;;;;122.70;115.05;;;;;;;;;;10243333;28;20045;-65
2022/11/23 03:24:34;;;;;;;117.22;109.97;;;;;;;;;;10255290;28;20046;-65
2022/11/23 03:29:30;;;;;;;115.72;108.38;;;;;;;;;;10249344;28;20055;-65
2022/11/23 03:34:27;;;;;;;113.22;106.13;;;;;;;;;;10248085;28;20557;-65
2022/11/23 03:39:23;;;;;;;120.20;112.43;;;;;;;;;;10251410;28;20068;-64
2022/11/23 03:44:19;;;;;;;116.78;109.28;;;;;;;;;;10248416;28;20052;-65
2022/11/23 03:49:16;;;;;;;119.20;111.50;;;;;;;;;;10248937;28;20053;-65
2022/11/23 03:54:12;;;;;;;119.25;111.70;;;;;;;;;;10257062;28;20052;-65
2022/11/23 03:59:08;;;;;;;116.88;108.97;;;;;;;;;;10245935;28;20044;-65
2022/11/23 04:04:07;;;;;;;118.65;110.97;;;;;;;;;;10251099;28;20071;-65
2022/11/23 04:09:03;;;;;;;117.07;109.68;;;;;;;;;;10249159;28;20441;-65
2022/11/23 04:14:00;;;;;;;119.38;111.78;;;;;;;;;;10249110;28;20517;-65
2022/11/23 04:18:56;;;;;;;114.75;107.47;;;;;;;;;;10243885;28;20132;-65
2022/11/23 04:23:52;;;;;;;112.95;105.80;;;;;;;;;;10245521;28;20519;-65
2022/11/23 04:28:48;;;;;;;118.63;111.22;;;;;;;;;;10248134;28;20049;-65
2022/11/23 04:33:45;;;;;;;116.55;109.13;;;;;;;;;;10270453;28;20392;-65
2022/11/23 04:38:41;;;;;;;114.35;107.38;;;;;;;;;;10253027;28;20037;-65
2022/11/23 04:43:37;;;;;;;115.20;107.80;;;;;;;;;;10256742;28;20042;-65
2022/11/23 04:48:33;;;;;;;110.97;103.95;;;;;;;;;;10247050;28;20129;-65
2022/11/23 04:53:30;;;;;;;111.80;104.53;;;;;;;;;;10244179;28;20510;-65
2022/11/23 04:58:26;;;;;;;112.32;105.38;;;;;;;;;;10245352;28;20052;-65
2022/11/23 05:03:30;;;;;;;111.45;104.78;;;;;;;;;;10240656;28;20392;-65
2022/11/23 05:08:26;;;;;;;108.05;101.28;;;;;;;;;;10242036;28;20041;-66
2022/11/23 05:13:23;;;;;;;113.03;105.75;;;;;;;;;;10241498;28;20049;-65
2022/11/23 05:18:19;;;;;;;107.50;100.93;;;;;;;;;;10249629;28;20053;-65
2022/11/23 05:23:15;;;;;;;107.85;100.90;;;;;;;;;;10248830;28;20415;-65
2022/11/23 05:28:16;;;;;;;109.55;103.03;;;;;;;;;;10250578;28;20163;-65
2022/11/23 05:33:33;;;;;;;102.57;96.00;;;;;;;;;;10237358;28;20038;-65
2022/11/23 05:38:30;;;;;;;94.38;88.20;;;;;;;;;;10243793;28;20522;-65
2022/11/23 05:43:26;;;;;;;89.25;83.38;;;;;;;;;;10256224;28;20047;-65
2022/11/23 05:48:22;;;;;;;92.38;86.07;;;;;;;;;;10242063;28;20045;-65
2022/11/23 05:53:18;;;;;;;94.97;88.18;;;;;;;;;;10246826;28;20041;-65
2022/11/23 05:58:15;;;;;;;97.25;90.93;;;;;;;;;;10239641;28;20040;-65
2022/11/23 06:03:11;;;;;;;93.03;86.82;;;;;;;;;;10245133;28;20048;-65
2022/11/23 06:08:07;;;;;;;102.35;95.00;;;;;;;;;;10238817;28;20453;-65
2022/11/23 06:13:04;;;;;;;104.30;97.13;;;;;;;;;;10239022;28;20053;-66
2022/11/23 06:18:00;;;;;;;102.93;96.03;;;;;;;;;;10248706;28;20037;-65
2022/11/23 06:22:56;;;;;;;106.88;99.57;;;;;;;;;;10241485;28;20057;-65
2022/11/23 06:27:56;;;;;;;108.30;101.03;;;;;;;;;;10247898;28;20056;-65
2022/11/23 06:32:53;;;;;;;113.57;105.80;;;;;;;;;;10247160;28;20050;-65
2022/11/23 06:37:53;;;;;;;113.55;105.82;;;;;;;;;;10256353;28;20054;-65
2022/11/23 06:42:49;;;;;;;115.25;107.78;;;;;;;;;;10245218;28;20141;-65
2022/11/23 06:47:46;;;;;;;115.95;108.70;;;;;;;;;;10240252;28;20049;-65
2022/11/23 06:52:42;;;;;;;119.53;111.57;;;;;;;;;;10252587;28;20045;-66
2022/11/23 06:57:38;;;;;;;113.70;106.13;;;;;;;;;;10251633;28;20205;-66
2022/11/23 07:02:34;;;;;;;119.03;110.95;;;;;;;;;;10253730;28;20045;-66
2022/11/23 07:07:31;;;;;;;117.15;109.20;;;;;;;;;;10248384;28;20411;-65
2022/11/23 07:12:27;;;;;;;124.78;116.63;;;;;;;;;;10252696;28;20042;-65
2022/11/23 07:17:23;;;;;;;123.03;115.25;;;;;;;;;;10245567;28;20530;-65
2022/11/23 07:22:19;;;;;;;120.80;112.80;;;;;;;;;;10259745;28;20056;-65
2022/11/23 07:27:16;;;;;;;123.90;115.18;;;;;;;;;;10245868;28;20052;-65
2022/11/23 07:32:13;;;;;;;123.95;115.75;;;;;;;;;;10249883;28;20038;-65
2022/11/23 07:37:10;;;;;;;119.75;112.25;;;;;;;;;;10253919;28;20044;-65
2022/11/23 07:42:06;;;;;;;118.55;110.68;;;;;;;;;;10249510;28;20146;-65
2022/11/23 07:47:22;;;;;;;121.97;114.03;;;;;;;;;;10265114;28;20052;-65
2022/11/23 07:52:18;;;;;;;117.72;110.15;;;;;;;;;;10246914;28;20060;-65
2022/11/23 07:57:15;;;;;;;126.65;118.53;;;;;;;;;;10242567;28;20041;-65
2022/11/23 08:02:13;;;;;;;122.53;114.43;;;;;;;;;;10252194;28;20518;-65
2022/11/23 08:07:09;;;;;;;129.30;121.05;;;;;;;;;;10250210;28;20076;-65
2022/11/23 08:12:05;;;;;;;125.78;118.03;;;;;;;;;;10243219;28;20041;-65
2022/11/23 08:17:02;;;;;;;121.07;113.40;;;;;;;;;;10241651;28;20042;-65
2022/11/23 08:21:58;;;;;;;121.55;113.63;;;;;;;;;;10251245;28;20693;-65
2022/11/23 08:26:54;;;;;;;130.27;121.78;;;;;;;;;;10243635;28;20107;-64
2022/11/23 08:31:51;;;;;;;115.25;107.97;;;;;;;;;;10252819;28;20054;-65
2022/11/23 08:36:47;;;;;;;120.25;113.03;;;;;;;;;;10251159;28;20045;-65
2022/11/23 08:41:43;;;;;;;118.28;110.70;;;;;;;;;;10248473;28;20128;-65
2022/11/23 08:46:40;;;;;;;120.30;111.93;;;;;;;;;;10237291;28;20499;-65
2022/11/23 08:51:36;;;;;;;117.50;110.35;;;;;;;;;;10243334;28;20124;-65
2022/11/23 08:56:32;;;;;;;119.47;111.72;;;;;;;;;;10244951;28;20450;-65
2022/11/23 09:01:29;;;;;;;118.15;110.88;;;;;;;;;;10239645;28;20061;-65
2022/11/23 09:06:27;;;;;;;116.10;108.85;;;;;;;;;;10241702;28;20040;-65
2022/11/23 09:11:25;;;;;;;113.15;106.35;;;;;;;;;;10237017;28;20041;-65
2022/11/23 09:16:21;;;;;;;115.78;108.72;;;;;;;;;;10246769;28;20044;-65
2022/11/23 09:21:17;;;;;;;109.20;102.88;;;;;;;;;;10245233;28;20043;-65
2022/11/23 09:26:14;;;;;;;105.97;99.70;;;;;;;;;;10245900;28;20047;-64
2022/11/23 09:31:10;;;;;;;102.60;96.43;;;;;;;;;;10245161;28;20407;-65
2022/11/23 09:36:07;;;;;;;106.43;100.30;;;;;;;;;;10240201;28;20136;-65
2022/11/23 09:41:15;;;;;;;98.22;92.20;;;;;;;;;;10248298;28;20043;-65
2022/11/23 09:46:26;;;;;;;105.28;98.63;;;;;;;;;;10244794;28;20067;-65
2022/11/23 09:51:22;;;;;;;104.63;98.10;;;;;;;;;;10247343;28;20133;-65
2022/11/23 09:56:21;;;;;;;102.53;96.68;;;;;;;;;;10244049;28;20411;-65
2022/11/23 10:01:17;;;;;;;92.13;86.80;;;;;;;;;;10235973;28;20048;-65
2022/11/23 10:06:16;;;;;;;83.45;78.78;;;;;;;;;;10240993;28;20065;-65
2022/11/23 10:11:31;;;;;;;78.10;73.43;;;;;;;;;;10248041;28;20073;-65
2022/11/23 10:16:43;;;;;;;70.53;65.85;;;;;;;;;;10243449;28;20536;-65
2022/11/23 10:21:50;;;;;;;64.37;60.37;;;;;;;;;;10242195;28;20125;-64
2022/11/23 10:26:47;;;;;;;68.75;64.50;;;;;;;;;;10243063;28;20064;-65
2022/11/23 10:31:45;;;;;;;68.93;64.88;;;;;;;;;;10247275;28;20045;-65
2022/11/23 10:36:42;;;;;;;69.53;65.00;;;;;;;;;;10245659;28;20045;-65
2022/11/23 10:41:38;;;;;;;71.15;66.85;;;;;;;;;;10247648;28;20410;-64
2022/11/23 10:46:35;;;;;;;68.03;63.67;;;;;;;;;;10250144;28;20046;-65
2022/11/23 10:51:32;;;;;;;64.70;60.38;;;;;;;;;;10257571;28;20434;-65
2022/11/23 10:56:29;;;;;;;60.05;56.13;;;;;;;;;;10243586;28;20522;-65
2022/11/23 11:01:26;;;;;;;57.50;53.70;;;;;;;;;;10249760;28;20045;-65
2022/11/23 11:06:29;;;;;;;57.78;53.58;;;;;;;;;;10243615;28;20045;-65
2022/11/23 11:11:27;;;;;;;52.38;48.83;;;;;;;;;;10253204;28;20052;-65
2022/11/23 11:16:23;;;;;;;52.38;49.15;;;;;;;;;;10237982;28;20431;-65
2022/11/23 11:21:21;;;;;;;54.00;50.45;;;;;;;;;;10251817;28;20047;-65
2022/11/23 11:26:19;;;;;;;50.30;47.30;;;;;;;;;;10239517;28;20132;-65
2022/11/23 11:31:28;;;;;;;55.38;51.83;;;;;;;;;;10253414;28;20051;-66
2022/11/23 11:36:27;;;;;;;61.05;57.03;;;;;;;;;;10254329;28;20041;-65
2022/11/23 11:41:26;;;;;;;60.28;56.53;;;;;;;;;;10259007;28;20135;-65
2022/11/23 11:46:24;;;;;;;64.50;60.50;;;;;;;;;;10247615;28;20132;-65
2022/11/23 11:51:34;;;;;;;64.95;60.95;;;;;;;;;;10236887;28;20555;-65
2022/11/23 11:56:36;;;;;;;70.95;66.55;;;;;;;;;;10234702;28;20037;-65
2022/11/23 12:01:34;;;;;;;69.25;65.05;;;;;;;;;;10237382;28;20095;-65
2022/11/23 12:06:34;;;;;;;74.53;69.72;;;;;;;;;;10238245;28;20133;-65
2022/11/23 12:11:31;;;;;;;83.22;78.03;;;;;;;;;;10236794;28;20037;-65
2022/11/23 12:16:30;;;;;;;76.53;72.15;;;;;;;;;;10247456;28;20037;-66
2022/11/23 12:21:41;;;;;;;81.45;76.68;;;;;;;;;;10247190;28;20054;-65
2022/11/23 12:26:55;;;;;;;84.90;80.07;;;;;;;;;;10237137;28;20128;-64
2022/11/23 12:32:10;;;;;;;70.05;65.80;;;;;;;;;;10244283;28;20458;-64
2022/11/23 12:37:39;;;;;;;63.72;59.78;;;;;;;;;;10242005;28;20037;-65
2022/11/23 12:42:44;;;;;;;70.03;65.57;;;;;;;;;;10235198;28;20045;-65
2022/11/23 12:48:08;;;;;;;42.72;39.67;;;;;;;;;;10248685;28;20570;-65
2022/11/23 12:53:19;;;;;;;37.33;34.33;;;;;;;;;;10244403;28;20401;-65
2022/11/23 12:58:20;;;;;;;32.80;30.35;;;;;;;;;;10239050;28;20129;-65
2022/11/23 13:03:25;;;;;;;31.50;29.20;;;;;;;;;;10252918;28;20041;-64
2022/11/23 13:08:40;;;;;;;34.80;32.53;;;;;;;;;;10240140;28;20081;-64
2022/11/23 13:13:47;;;;;;;37.42;35.10;;;;;;;;;;10239576;28;20699;-65
2022/11/23 13:18:52;;;;;;;39.20;36.67;;;;;;;;;;10238399;28;20393;-65
2022/11/23 13:23:49;;;;;;;43.30;40.50;;;;;;;;;;10241856;28;20126;-65
2022/11/23 13:28:46;;;;;;;45.90;43.05;;;;;;;;;;10250274;28;20049;-65
2022/11/23 13:33:44;;;;;;;51.80;48.45;;;;;;;;;;10247815;28;20054;-65
2022/11/23 13:38:41;;;;;;;55.20;51.97;;;;;;;;;;10240970;28;20155;-65
2022/11/23 13:43:37;;;;;;;56.95;53.40;;;;;;;;;;10242824;28;20060;-65
2022/11/23 13:48:44;;;;;;;54.92;51.70;;;;;;;;;;10238372;28;20048;-65
2022/11/23 13:54:03;;;;;;;54.80;51.38;;;;;;;;;;10255029;28;20124;-65
2022/11/23 13:59:19;;;;;;;59.63;56.10;;;;;;;;;;10253067;28;20056;-65
2022/11/23 14:04:21;;;;;;;56.95;53.33;;;;;;;;;;10255255;28;20133;-65
2022/11/23 14:09:36;;;;;;;57.17;53.65;;;;;;;;;;10248257;28;20049;-65
2022/11/23 14:14:40;;;;;;;54.60;51.08;;;;;;;;;;10239752;28;20128;-64
2022/11/23 14:19:43;;;;;;;53.85;50.85;;;;;;;;;;10244290;28;20033;-65
2022/11/23 14:24:42;;;;;;;53.42;50.30;;;;;;;;;;10247356;28;20065;-65
2022/11/23 14:29:50;;;;;;;56.55;53.13;;;;;;;;;;10256904;28;20068;-65
2022/11/23 14:35:15;;;;;;;56.38;53.10;;;;;;;;;;10260565;28;20045;-65
2022/11/23 14:40:19;;;;;;;60.78;57.22;;;;;;;;;;10231475;28;20119;-65
2022/11/23 14:45:15;;;;;;;62.88;59.10;;;;;;;;;;10249389;28;20139;-66
2022/11/23 14:50:22;;;;;;;63.90;59.63;;;;;;;;;;10261593;28;20406;-65
2022/11/23 14:55:20;;;;;;;65.07;61.17;;;;;;;;;;10244602;28;20045;-65
2022/11/23 15:00:25;;;;;;;64.90;60.85;;;;;;;;;;10248127;28;20037;-65
2022/11/23 15:05:24;;;;;;;69.32;65.10;;;;;;;;;;10246314;28;20048;-66
2022/11/23 15:10:27;;;;;;;68.82;64.63;;;;;;;;;;10248533;28;20040;-65
2022/11/23 15:15:25;;;;;;;76.47;71.57;;;;;;;;;;10245501;28;20141;-65
2022/11/23 15:20:23;;;;;;;83.07;78.03;;;;;;;;;;10256115;28;20081;-66
2022/11/23 15:25:20;;;;;;;85.18;80.10;;;;;;;;;;10240246;28;20048;-65
2022/11/23 15:30:20;;;;;;;88.18;82.65;;;;;;;;;;10255941;28;20080;-65
2022/11/23 15:35:17;;;;;;;87.43;81.78;;;;;;;;;;10248796;28;20132;-65
2022/11/23 15:40:14;;;;;;;92.90;87.15;;;;;;;;;;10240401;28;20415;-65
2022/11/23 15:45:29;;;;;;;95.72;89.70;;;;;;;;;;10248061;28;20049;-66
2022/11/23 15:50:25;;;;;;;92.47;86.53;;;;;;;;;;10234737;28;20045;-65
2022/11/23 15:55:28;;;;;;;94.22;88.45;;;;;;;;;;10244118;28;20037;-66
2022/11/23 16:00:25;;;;;;;96.93;91.22;;;;;;;;;;10253890;28;20405;-65
2022/11/23 16:05:22;;;;;;;107.90;101.07;;;;;;;;;;10243845;28;20124;-65
2022/11/23 16:10:20;;;;;;;107.20;100.68;;;;;;;;;;10244402;28;20045;-65
2022/11/23 16:15:40;;;;;;;111.90;105.18;;;;;;;;;;10248945;28;20575;-65
2022/11/23 16:20:41;;;;;;;111.40;104.32;;;;;;;;;;10244272;28;20041;-65
2022/11/23 16:25:37;;;;;;;109.32;102.55;;;;;;;;;;10236990;28;20072;-66
2022/11/23 16:30:35;;;;;;;115.78;109.07;;;;;;;;;;10252972;28;20041;-65
2022/11/23 16:35:31;;;;;;;115.88;108.68;;;;;;;;;;10255442;28;20061;-65
2022/11/23 16:40:28;;;;;;;110.38;103.47;;;;;;;;;;10244217;28;20065;-65
2022/11/23 16:45:24;;;;;;;110.70;103.82;;;;;;;;;;10239948;28;20129;-66
2022/11/23 16:50:21;;;;;;;117.20;109.97;;;;;;;;;;10253023;28;20143;-65
2022/11/23 16:55:17;;;;;;;118.25;111.15;;;;;;;;;;10238910;28;20041;-65
2022/11/23 17:00:18;;;;;;;121.03;113.60;;;;;;;;;;10249354;28;20487;-65
2022/11/23 17:05:15;;;;;;;123.10;115.32;;;;;;;;;;10238182;28;20046;-65
2022/11/23 17:10:12;;;;;;;126.90;118.70;;;;;;;;;;10246412;28;20052;-66
2022/11/23 17:15:10;;;;;;;120.35;112.32;;;;;;;;;;10243283;28;20081;-65
2022/11/23 17:20:10;;;;;;;118.30;111.18;;;;;;;;;;10245215;28;20068;-66
2022/11/23 17:25:07;;;;;;;115.97;108.60;;;;;;;;;;10249189;28;20414;-65
2022/11/23 17:30:12;;;;;;;116.35;109.18;;;;;;;;;;10250477;28;20107;-66
2022/11/23 17:35:09;;;;;;;122.88;115.30;;;;;;;;;;10253587;28;20442;-66
2022/11/23 17:40:12;;;;;;;122.90;115.22;;;;;;;;;;10256542;28;20041;-66
2022/11/23 17:45:08;;;;;;;;;;;;;;;;;;10247931;28;20121;-65
2022/11/23 17:50:07;;;;;;;124.63;117.13;;;;;;;;;;10248509;28;20019;-66
2022/11/23 17:55:03;;;;;;;125.00;117.35;;;;;;;;;;10238670;28;20425;-66
2022/11/23 18:00:00;;;;;;;132.40;123.32;;;;;;;;;;10242239;28;20159;-65
2022/11/23 18:04:59;;;;;;;131.65;123.55;;;;;;;;;;10241222;28;20041;-65
2022/11/23 18:09:55;;;;;;;135.98;127.68;;;;;;;;;;10238826;28;20124;-66
2022/11/23 18:14:51;;;;;;;135.02;126.90;;;;;;;;;;10247580;28;20045;-65
2022/11/23 18:19:47;;;;;;;136.80;128.68;;;;;;;;;;10242964;28;20088;-65
2022/11/23 18:24:44;;;;;;;140.70;132.23;;;;;;;;;;10237387;28;20050;-65
2022/11/23 18:29:40;;;;;;;140.73;132.13;;;;;;;;;;10239064;28;20513;-66
2022/11/23 18:34:36;;;;;;;132.98;124.88;;;;;;;;;;10234677;28;20049;-66
2022/11/23 18:39:33;;;;;;;134.45;125.97;;;;;;;;;;10250075;28;20037;-65
2022/11/23 18:44:30;;;;;;;137.55;128.80;;;;;;;;;;10240429;28;20041;-65
2022/11/23 18:49:26;;;;;;;134.98;126.72;;;;;;;;;;10240334;28;20124;-66
2022/11/23 18:54:22;;;;;;;137.18;128.77;;;;;;;;;;10244690;28;20045;-66
2022/11/23 18:59:20;;;;;;;139.20;130.18;;;;;;;;;;10250685;28;20165;-65
2022/11/23 19:04:37;;;;;;;133.27;124.88;;;;;;;;;;10235401;28;20046;-65
2022/11/23 19:09:33;;;;;;;135.63;127.32;;;;;;;;;;10239742;28;20042;-65
2022/11/23 19:14:30;;;;;;;138.82;129.95;;;;;;;;;;10251939;28;20502;-65
2022/11/23 19:19:27;;;;;;;140.05;131.32;;;;;;;;;;10241199;28;20041;-65
2022/11/23 19:24:23;;;;;;;144.30;135.35;;;;;;;;;;10250571;28;20045;-65
2022/11/23 19:29:19;;;;;;;142.80;134.02;;;;;;;;;;10254449;28;20049;-65
2022/11/23 19:34:20;;;;;;;143.63;134.20;;;;;;;;;;10253184;28;20042;-65
2022/11/23 19:39:16;;;;;;;137.98;129.48;;;;;;;;;;10242045;28;20065;-65
2022/11/23 19:44:12;;;;;;;142.32;133.40;;;;;;;;;;10249342;28;20045;-65
2022/11/23 19:49:09;;;;;;;140.15;131.43;;;;;;;;;;10244550;28;20045;-66
2022/11/23 19:54:06;;;;;;;138.25;129.65;;;;;;;;;;10245098;28;20046;-65
2022/11/23 19:59:02;;;;;;;139.38;131.00;;;;;;;;;;10237630;28;20053;-65
2022/11/23 20:04:06;;;;;;;139.85;131.55;;;;;;;;;;10239070;28;20049;-65
2022/11/23 20:09:06;;;;;;;140.10;131.40;;;;;;;;;;10242422;28;20054;-65
2022/11/23 20:14:03;;;;;;;140.98;132.27;;;;;;;;;;10247369;28;20033;-65
2022/11/23 20:19:00;;;;;;;141.48;132.82;;;;;;;;;;10249278;28;20044;-65
2022/11/23 20:24:06;;;;;;;144.13;135.30;;;;;;;;;;10254913;28;20044;-65
2022/11/23 20:29:03;;;;;;;145.40;136.60;;;;;;;;;;10244654;28;20052;-65
2022/11/23 20:34:00;;;;;;;145.65;136.93;;;;;;;;;;10249209;28;20357;-65
2022/11/23 20:39:02;;;;;;;142.02;133.27;;;;;;;;;;10249950;28;20079;-66
2022/11/23 20:44:19;;;;;;;146.13;136.93;;;;;;;;;;10254818;28;20490;-65
2022/11/23 20:49:16;;;;;;;139.50;130.95;;;;;;;;;;10249320;28;20079;-65
2022/11/23 20:54:12;;;;;;;143.60;134.85;;;;;;;;;;10251242;28;20155;-65
2022/11/23 20:59:10;;;;;;;144.95;136.23;;;;;;;;;;10242665;28;20460;-65
2022/11/23 21:04:07;;;;;;;146.68;137.95;;;;;;;;;;10237227;28;20052;-65
2022/11/23 21:09:03;;;;;;;142.98;134.13;;;;;;;;;;10241654;28;20052;-65
2022/11/23 21:14:06;;;;;;;149.18;140.07;;;;;;;;;;10242468;28;20033;-65
2022/11/23 21:19:08;;;;;;;153.60;144.40;;;;;;;;;;10249630;28;20473;-65
2022/11/23 21:24:05;;;;;;;147.55;138.52;;;;;;;;;;10246384;28;20128;-65
2022/11/23 21:29:03;;;;;;;158.68;149.15;;;;;;;;;;10241383;28;20041;-65
2022/11/23 21:34:04;;;;;;;155.27;145.80;;;;;;;;;;10249055;28;20423;-65
2022/11/23 21:39:01;;;;;;;155.93;146.23;;;;;;;;;;10237324;28;20124;-65
2022/11/23 21:43:57;;;;;;;157.07;147.60;;;;;;;;;;10252995;28;20045;-64
2022/11/23 21:48:55;;;;;;;161.77;151.95;;;;;;;;;;10248541;28;20107;-65
2022/11/23 21:53:52;;;;;;;160.18;150.30;;;;;;;;;;10251693;28;20124;-64
2022/11/23 21:58:49;;;;;;;163.05;152.90;;;;;;;;;;10240402;28;20050;-65
2022/11/23 22:03:50;;;;;;;169.52;159.05;;;;;;;;;;10243331;28;20056;-65
2022/11/23 22:08:50;;;;;;;169.35;159.55;;;;;;;;;;10251779;28;20053;-64
2022/11/23 22:13:50;;;;;;;168.30;158.93;;;;;;;;;;10252120;28;20059;-64
2022/11/23 22:18:47;;;;;;;171.85;162.45;;;;;;;;;;10248952;28;20048;-65
2022/11/23 22:23:50;;;;;;;161.02;152.02;;;;;;;;;;10246478;28;20057;-64
2022/11/23 22:28:47;;;;;;;165.75;156.93;;;;;;;;;;10250300;28;20057;-65
2022/11/23 22:33:44;;;;;;;152.45;143.85;;;;;;;;;;10256804;28;20045;-65
2022/11/23 22:38:41;;;;;;;149.05;140.93;;;;;;;;;;10255927;28;20052;-65
2022/11/23 22:43:37;;;;;;;136.07;128.60;;;;;;;;;;10255156;28;20049;-65
2022/11/23 22:48:37;;;;;;;129.07;122.18;;;;;;;;;;10256070;28;20037;-65
2022/11/23 22:53:33;;;;;;;117.13;110.55;;;;;;;;;;10247054;28;20577;-65
2022/11/23 22:58:30;;;;;;;116.60;110.55;;;;;;;;;;10245579;28;20041;-64
2022/11/23 23:03:26;;;;;;;104.80;99.32;;;;;;;;;;10245059;28;20061;-65
2022/11/23 23:08:23;;;;;;;101.40;95.90;;;;;;;;;;10269895;28;20120;-65
2022/11/23 23:13:20;;;;;;;103.60;98.25;;;;;;;;;;10247888;28;20107;-65
2022/11/23 23:18:17;;;;;;;92.03;87.22;;;;;;;;;;10244198;28;20064;-65
2022/11/23 23:23:13;;;;;;;85.05;80.45;;;;;;;;;;10243876;28;20053;-65
2022/11/23 23:28:09;;;;;;;86.13;81.50;;;;;;;;;;10250582;28;20064;-65
2022/11/23 23:33:06;;;;;;;84.78;79.80;;;;;;;;;;10255106;28;20037;-65
2022/11/23 23:38:03;;;;;;;81.10;76.65;;;;;;;;;;10247529;28;20041;-65
2022/11/23 23:42:59;;;;;;;82.55;77.78;;;;;;;;;;10256203;28;20074;-65
2022/11/23 23:47:56;;;;;;;73.70;69.53;;;;;;;;;;10249773;28;20530;-64
2022/11/23 23:52:52;;;;;;;76.20;71.93;;;;;;;;;;10243016;28;20038;-65
2022/11/23 23:57:48;;;;;;;77.20;72.75;;;;;;;;;;10233095;28;20055;-65
